Time;durP1;ratioP1;P1;durP2;ratioP2;P2;SDS_P1;SDS_P2;PMS_P1;PMS_P2;Temp;Humidity;BMP_temperature;BMP_pressure;BME280_temperature;BME280_humidity;BME280_pressure;Samples;Min_cycle;Max_cycle;Signal;HPM_P1;HPM_P2
2023/11/27 00:01:23;;;;;;;0.30;0.30;;;;;;;7.59;77.71;100942.84;5060418;28;20088;-81
2023/11/27 00:03:50;;;;;;;0.20;0.20;;;;;;;7.42;78.12;100941.16;5057984;28;20037;-82
2023/11/27 00:06:16;;;;;;;2.17;1.15;;;;;;;7.54;77.36;100931.41;5054427;28;20045;-84
2023/11/27 00:08:42;;;;;;;0.35;0.35;;;;;;;7.57;77.69;100926.16;5054746;28;20093;-85
2023/11/27 00:11:08;;;;;;;0.60;0.60;;;;;;;7.55;77.82;100938.44;5056072;28;20033;-83
2023/11/27 00:13:35;;;;;;;0.10;0.10;;;;;;;7.59;76.95;100919.09;5057265;28;20064;-84
2023/11/27 00:16:01;;;;;;;0.17;0.17;;;;;;;7.51;77.79;100915.63;5054388;28;20093;-81
2023/11/27 00:18:27;;;;;;;0.10;0.10;;;;;;;7.42;77.43;100920.06;5057419;28;20028;-84
2023/11/27 00:20:53;;;;;;;0.10;0.10;;;;;;;7.40;77.76;100908.66;5050712;28;20035;-83
2023/11/27 00:23:19;;;;;;;0.20;0.20;;;;;;;7.39;77.76;100906.91;5054491;28;20033;-82
2023/11/27 00:25:46;;;;;;;0.10;0.10;;;;;;;7.51;76.97;100894.53;5052674;28;20025;-81
2023/11/27 00:28:12;;;;;;;0.20;0.20;;;;;;;7.39;77.77;100901.66;5056898;28;20037;-82
2023/11/27 00:30:38;;;;;;;0.30;0.30;;;;;;;7.32;77.55;100893.78;5053339;28;20052;-81
2023/11/27 00:33:04;;;;;;;0.13;0.13;;;;;;;7.40;76.85;100887.59;5050917;28;20026;-83
2023/11/27 00:35:30;;;;;;;0.13;0.13;;;;;;;7.33;77.24;100880.59;5054355;28;20092;-83
2023/11/27 00:37:56;;;;;;;24.55;4.97;;;;;;;7.26;77.29;100869.22;5051479;28;20112;-81
2023/11/27 00:40:23;;;;;;;0.35;0.35;;;;;;;7.28;77.29;100867.44;5053112;28;20025;-81
2023/11/27 00:42:49;;;;;;;0.20;0.20;;;;;;;7.28;76.47;100856.88;5058497;28;20033;-83
2023/11/27 00:45:15;;;;;;;0.60;0.60;;;;;;;7.27;76.50;100859.53;5058522;28;20029;-83
2023/11/27 00:47:41;;;;;;;0.10;0.10;;;;;;;7.28;76.56;100856.03;5058698;28;20021;-83
2023/11/27 00:50:08;;;;;;;0.10;0.10;;;;;;;7.35;77.01;100843.69;5059454;28;20025;-83
2023/11/27 00:52:34;;;;;;;0.20;0.20;;;;;;;7.27;76.50;100838.47;5058513;28;20056;-84
2023/11/27 00:55:00;;;;;;;0.20;0.20;;;;;;;7.34;76.46;100834.91;5058094;28;20059;-82
2023/11/27 00:57:26;;;;;;;0.20;0.20;;;;;;;7.24;76.25;100827.91;5057858;28;20044;-82
2023/11/27 00:59:53;;;;;;;0.15;0.15;;;;;;;7.27;76.26;100828.78;5058102;28;20028;-83
2023/11/27 01:02:19;;;;;;;0.13;0.13;;;;;;;7.27;76.52;100817.38;5054741;28;20446;-82
2023/11/27 01:04:45;;;;;;;1.27;0.90;;;;;;;7.27;76.04;100818.25;5061327;28;20029;-83
2023/11/27 01:07:11;;;;;;;0.10;0.10;;;;;;;7.35;75.77;100810.31;5062782;28;20132;-83
2023/11/27 01:09:38;;;;;;;0.30;0.30;;;;;;;7.40;76.11;100804.97;5061953;28;20040;-83
2023/11/27 01:12:04;;;;;;;1.42;1.40;;;;;;;7.28;76.00;100798.91;5061781;28;20029;-84
2023/11/27 01:14:31;;;;;;;0.28;0.28;;;;;;;7.29;75.76;100790.13;5063138;28;20037;-82
2023/11/27 01:16:57;;;;;;;0.65;0.65;;;;;;;7.28;75.92;100784.88;5061910;28;20033;-84
2023/11/27 01:19:23;;;;;;;0.20;0.20;;;;;;;7.33;75.26;100776.91;5062543;28;20078;-85
2023/11/27 01:21:50;;;;;;;0.20;0.20;;;;;;;7.32;75.54;100773.41;5060903;28;20546;-84
2023/11/27 01:24:17;;;;;;;0.40;0.40;;;;;;;7.34;75.06;100769.00;5062210;28;20053;-83
2023/11/27 01:26:43;;;;;;;1.08;0.73;;;;;;;7.36;75.21;100767.22;5061352;28;20108;-84
2023/11/27 01:29:09;;;;;;;0.20;0.20;;;;;;;7.40;74.98;100763.69;5062505;28;20029;-84
2023/11/27 01:31:35;;;;;;;1.73;1.73;;;;;;;7.39;75.05;100761.94;5062682;28;20033;-83
2023/11/27 01:34:01;;;;;;;0.20;0.20;;;;;;;7.32;75.04;100757.59;5064916;28;20032;-84
2023/11/27 01:36:28;;;;;;;25.80;2.38;;;;;;;7.32;75.22;100747.06;5060998;28;20032;-84
2023/11/27 01:38:54;;;;;;;0.20;0.20;;;;;;;7.41;75.68;100736.44;5062663;28;20033;-85
2023/11/27 01:41:20;;;;;;;0.93;0.93;;;;;;;7.21;75.58;100735.72;5061201;28;20045;-84
2023/11/27 01:43:46;;;;;;;0.40;0.40;;;;;;;7.21;76.13;100738.38;5062165;28;20104;-83
2023/11/27 01:46:23;;;;;;;0.20;0.20;;;;;;;7.16;76.25;100734.91;5062807;28;20057;-81
2023/11/27 01:48:51;;;;;;;0.13;0.13;;;;;;;7.27;75.70;100717.22;5063129;28;20021;-82
2023/11/27 01:51:18;;;;;;;2.05;1.15;;;;;;;7.13;76.17;100726.13;5061441;28;20029;-84
2023/11/27 01:53:45;;;;;;;0.75;0.63;;;;;;;7.16;76.43;100716.44;5060199;28;20053;-84
2023/11/27 01:56:11;;;;;;;0.40;0.40;;;;;;;7.13;76.74;100710.31;5065407;28;20025;-82
2023/11/27 01:58:38;;;;;;;0.88;0.82;;;;;;;7.21;76.32;100701.47;5060192;28;20029;-83
2023/11/27 02:01:05;;;;;;;0.20;0.20;;;;;;;7.18;76.40;100694.47;5059745;28;20063;-82
2023/11/27 02:03:31;;;;;;;0.10;0.10;;;;;;;7.16;77.13;100693.59;5061662;28;20428;-82
2023/11/27 02:05:57;;;;;;;0.20;0.20;;;;;;;7.04;77.83;100689.31;5063487;28;20060;-82
2023/11/27 02:08:24;;;;;;;0.20;0.20;;;;;;;7.11;77.84;100671.69;5065154;28;20123;-81
2023/11/27 02:10:52;;;;;;;0.10;0.10;;;;;;;7.06;77.76;100671.72;5068940;28;20029;-81
2023/11/27 02:13:19;;;;;;;3.25;3.05;;;;;;;7.13;78.23;100660.25;5071259;28;20092;-82
2023/11/27 02:15:45;;;;;;;0.30;0.30;;;;;;;7.06;78.19;100660.31;5071091;28;20037;-82
2023/11/27 02:18:11;;;;;;;0.30;0.30;;;;;;;7.12;77.79;100650.59;5070747;28;20080;-82
2023/11/27 02:20:37;;;;;;;0.22;0.22;;;;;;;7.18;77.92;100651.41;5065096;28;20057;-83
2023/11/27 02:23:07;;;;;;;0.45;0.45;;;;;;;7.16;78.50;100645.31;5066168;28;20029;-83
2023/11/27 02:25:33;;;;;;;0.20;0.20;;;;;;;7.05;78.13;100642.75;5064799;28;20067;-82
2023/11/27 02:28:00;;;;;;;0.20;0.20;;;;;;;7.07;78.17;100633.09;5067782;28;20086;-82
2023/11/27 02:30:26;;;;;;;0.38;0.38;;;;;;;7.09;79.00;100633.94;5054172;28;20037;-81
2023/11/27 02:32:52;;;;;;;0.20;0.20;;;;;;;7.12;78.63;100618.97;5060884;28;20029;-81
2023/11/27 02:35:18;;;;;;;0.40;0.40;;;;;;;7.09;78.74;100613.75;5069877;28;20025;-81
2023/11/27 02:37:45;;;;;;;0.30;0.30;;;;;;;7.18;78.28;100607.50;5059845;28;20041;-81
2023/11/27 02:40:12;;;;;;;0.20;0.20;;;;;;;7.15;78.25;100601.41;5061078;28;20033;-82
2023/11/27 02:42:39;;;;;;;0.77;0.77;;;;;;;7.16;78.67;100598.75;5062892;28;20044;-81
2023/11/27 02:45:06;;;;;;;0.20;0.20;;;;;;;7.18;78.23;100586.44;5062686;28;20095;-82
2023/11/27 02:47:33;;;;;;;0.10;0.10;;;;;;;7.18;78.29;100580.28;5061915;28;20029;-81
2023/11/27 02:49:59;;;;;;;0.20;0.20;;;;;;;7.13;78.10;100575.06;5070302;28;20154;-80
2023/11/27 02:52:25;;;;;;;0.10;0.10;;;;;;;7.13;78.06;100578.56;5058869;28;20028;-80
2023/11/27 02:54:53;;;;;;;0.30;0.30;;;;;;;7.06;78.66;100571.59;5060039;28;20036;-82
2023/11/27 02:57:19;;;;;;;0.45;0.45;;;;;;;7.16;78.34;100567.13;5058777;28;20082;-82
2023/11/27 02:59:45;;;;;;;0.30;0.30;;;;;;;7.11;78.80;100559.25;5058949;28;20051;-81
2023/11/27 03:02:12;;;;;;;0.28;0.28;;;;;;;6.99;79.09;100554.13;5060814;28;20119;-82
2023/11/27 03:04:38;;;;;;;0.20;0.20;;;;;;;6.88;78.64;100546.34;5066593;28;20066;-83
2023/11/27 03:07:05;;;;;;;0.20;0.20;;;;;;;6.94;79.32;100543.63;5066967;28;20037;-83
2023/11/27 03:09:31;;;;;;;0.38;0.38;;;;;;;6.94;78.75;100534.84;5053060;28;20085;-82
2023/11/27 03:12:00;;;;;;;0.65;0.65;;;;;;;7.04;78.83;100530.38;5060500;28;20496;-83
2023/11/27 03:14:27;;;;;;;0.30;0.30;;;;;;;7.02;78.70;100522.47;5062118;28;20033;-82
2023/11/27 03:16:53;;;;;;;0.10;0.10;;;;;;;6.97;78.79;100529.56;5060390;28;20438;-82
2023/11/27 03:19:19;;;;;;;0.68;0.57;;;;;;;6.93;79.24;100517.31;5062457;28;20025;-83
2023/11/27 03:21:46;;;;;;;0.30;0.30;;;;;;;7.04;78.57;100518.09;5066925;28;20094;-83
2023/11/27 03:24:12;;;;;;;0.20;0.20;;;;;;;7.01;78.68;100515.47;5066933;28;20033;-83
2023/11/27 03:26:38;;;;;;;0.20;0.20;;;;;;;7.06;78.66;100508.38;5069205;28;20081;-82
2023/11/27 03:29:04;;;;;;;0.20;0.20;;;;;;;6.95;78.62;100499.72;5070640;28;20032;-82
2023/11/27 03:31:31;;;;;;;0.17;0.17;;;;;;;6.97;78.61;100496.19;5064617;28;20124;-80
2023/11/27 03:33:57;;;;;;;0.10;0.10;;;;;;;7.04;78.78;100493.47;5062658;28;20017;-80
2023/11/27 03:36:25;;;;;;;0.20;0.20;;;;;;;6.98;78.81;100494.44;5064534;28;20029;-80
2023/11/27 03:38:51;;;;;;;0.47;0.47;;;;;;;6.90;78.95;100491.00;5061776;28;20024;-79
2023/11/27 03:41:18;;;;;;;0.22;0.22;;;;;;;6.93;78.86;100491.84;5056243;28;20036;-81
2023/11/27 03:43:45;;;;;;;0.20;0.20;;;;;;;6.96;79.05;100477.78;5055500;28;20471;-81
2023/11/27 03:46:11;;;;;;;0.20;0.20;;;;;;;6.82;79.14;100482.28;5055440;28;20029;-82
2023/11/27 03:48:38;;;;;;;0.20;0.20;;;;;;;6.90;78.77;100470.81;5057183;28;20060;-82
2023/11/27 03:51:05;;;;;;;0.20;0.20;;;;;;;6.88;78.76;100467.31;5066378;28;20479;-82
2023/11/27 03:53:32;;;;;;;0.20;0.20;;;;;;;6.93;78.78;100469.91;5057349;28;20024;-82
2023/11/27 03:55:58;;;;;;;0.20;0.20;;;;;;;6.94;78.87;100455.84;5057723;28;20033;-81
2023/11/27 03:58:24;;;;;;;0.20;0.20;;;;;;;6.91;79.03;100455.88;5056837;28;20060;-82
2023/11/27 04:00:51;;;;;;;0.47;0.47;;;;;;;6.91;78.48;100447.97;5055913;28;20052;-82
2023/11/27 04:03:17;;;;;;;0.32;0.32;;;;;;;6.90;78.37;100441.84;5063147;28;20028;-82
2023/11/27 04:05:43;;;;;;;0.20;0.20;;;;;;;6.92;78.32;100439.19;5055281;28;20079;-79
2023/11/27 04:08:10;;;;;;;0.20;0.20;;;;;;;6.92;78.69;100434.78;5066057;28;20060;-80
2023/11/27 04:10:36;;;;;;;0.10;0.10;;;;;;;6.93;78.28;100427.78;5065462;28;20070;-82
2023/11/27 04:13:02;;;;;;;0.30;0.30;;;;;;;6.90;78.12;100419.91;5059725;28;20040;-82
2023/11/27 04:15:29;;;;;;;0.20;0.20;;;;;;;6.91;78.79;100409.34;5052672;28;20036;-81
2023/11/27 04:17:56;;;;;;;0.10;0.10;;;;;;;6.93;78.63;100404.94;5054430;28;20496;-82
2023/11/27 04:20:22;;;;;;;0.35;0.35;;;;;;;6.92;78.69;100397.06;5055878;28;20041;-80
2023/11/27 04:22:49;;;;;;;0.20;0.20;;;;;;;6.92;78.61;100397.06;5068100;28;20025;-81
2023/11/27 04:25:15;;;;;;;0.20;0.20;;;;;;;6.85;78.38;100392.75;5070388;28;20084;-81
2023/11/27 04:27:41;;;;;;;0.20;0.20;;;;;;;6.88;78.86;100398.84;5062556;28;20084;-82
2023/11/27 04:30:08;;;;;;;1.65;1.45;;;;;;;6.94;78.71;100390.00;5060418;28;20091;-81
2023/11/27 04:32:34;;;;;;;0.38;0.38;;;;;;;6.96;78.74;100390.84;5061206;28;20084;-81
2023/11/27 04:35:00;;;;;;;0.10;0.10;;;;;;;6.93;78.65;100380.38;5061294;28;20178;-80
2023/11/27 04:37:27;;;;;;;0.30;0.30;;;;;;;6.90;78.33;100377.75;5060646;28;20033;-81
2023/11/27 04:39:53;;;;;;;0.10;0.10;;;;;;;6.89;78.36;100376.00;5057382;28;20071;-82
2023/11/27 04:42:20;;;;;;;0.17;0.17;;;;;;;6.79;78.10;100373.50;5064728;28;20063;-82
2023/11/27 04:44:46;;;;;;;0.30;0.30;;;;;;;6.73;78.37;100368.31;5064908;28;20039;-81
2023/11/27 04:47:13;;;;;;;0.20;0.20;;;;;;;6.74;78.16;100362.16;5063603;28;20053;-81
2023/11/27 04:49:39;;;;;;;0.38;0.38;;;;;;;6.77;78.27;100348.94;5062012;28;20115;-82
2023/11/27 04:52:05;;;;;;;0.20;0.20;;;;;;;6.84;78.13;100343.59;5061195;28;20040;-82
2023/11/27 04:54:31;;;;;;;0.30;0.30;;;;;;;6.80;78.80;100335.75;5063336;28;20049;-81
2023/11/27 04:56:58;;;;;;;0.20;0.20;;;;;;;6.84;78.67;100322.53;5060675;28;20036;-81
2023/11/27 04:59:24;;;;;;;0.10;0.10;;;;;;;6.83;78.37;100321.69;5060835;28;20040;-82
2023/11/27 05:01:50;;;;;;;0.47;0.47;;;;;;;6.80;78.55;100316.44;5062457;28;20037;-81
2023/11/27 05:04:17;;;;;;;0.13;0.13;;;;;;;6.71;78.24;100319.19;5061278;28;20048;-80
2023/11/27 05:06:45;;;;;;;0.28;0.28;;;;;;;6.79;77.62;100310.31;5060813;28;20033;-80
2023/11/27 05:09:12;;;;;;;0.45;0.45;;;;;;;6.82;77.47;100297.97;5056983;28;20033;-81
2023/11/27 05:11:39;;;;;;;0.10;0.10;;;;;;;6.88;77.42;100290.00;5061376;28;20033;-80
2023/11/27 05:14:06;;;;;;;0.10;0.10;;;;;;;6.86;77.43;100290.00;5060934;28;20484;-82
2023/11/27 05:16:32;;;;;;;0.17;0.17;;;;;;;6.82;77.29;100287.44;5060060;28;20032;-81
2023/11/27 05:18:58;;;;;;;0.20;0.20;;;;;;;6.79;77.58;100277.81;5060149;28;20209;-81
2023/11/27 05:21:24;;;;;;;0.20;0.20;;;;;;;6.84;77.92;100281.28;5059389;28;20028;-80
2023/11/27 05:23:50;;;;;;;0.17;0.17;;;;;;;6.85;77.81;100268.97;5060334;28;20036;-81
2023/11/27 05:26:16;;;;;;;0.15;0.15;;;;;;;6.79;77.43;100265.53;5060289;28;20218;-81
2023/11/27 05:28:43;;;;;;;0.20;0.20;;;;;;;6.82;77.77;100266.38;5056795;28;20021;-80
2023/11/27 05:31:10;;;;;;;0.30;0.30;;;;;;;6.82;77.88;100258.47;5062134;28;20029;-81
2023/11/27 05:33:36;;;;;;;0.15;0.15;;;;;;;6.86;77.80;100262.81;5061308;28;20025;-81
2023/11/27 05:36:03;;;;;;;0.17;0.17;;;;;;;6.83;77.94;100252.31;5061407;28;20033;-81
2023/11/27 05:38:29;;;;;;;0.10;0.10;;;;;;;6.79;77.21;100244.47;5061332;28;20056;-80
2023/11/27 05:40:56;;;;;;;0.10;0.10;;;;;;;6.82;77.14;100240.94;5060633;28;20480;-81
2023/11/27 05:43:23;;;;;;;0.17;0.17;;;;;;;6.84;77.64;100228.63;5060978;28;20037;-80
2023/11/27 05:45:49;;;;;;;0.10;0.10;;;;;;;6.78;77.37;100224.31;5063058;28;20025;-81
2023/11/27 05:48:16;;;;;;;0.20;0.20;;;;;;;6.80;77.82;100227.78;5060951;28;20083;-81
2023/11/27 05:50:42;;;;;;;0.20;0.20;;;;;;;6.79;77.43;100223.41;5061809;28;20035;-81
2023/11/27 05:53:09;;;;;;;0.10;0.10;;;;;;;6.74;77.31;100221.72;5061077;28;20088;-81
2023/11/27 05:55:36;;;;;;;0.10;0.10;;;;;;;6.75;77.30;100224.38;5061388;28;20112;-81
2023/11/27 05:58:03;;;;;;;0.35;0.35;;;;;;;6.82;77.63;100208.44;5061188;28;20549;-83
2023/11/27 06:00:30;;;;;;;0.20;0.20;;;;;;;6.75;77.33;100216.47;5058287;28;20018;-82
2023/11/27 06:02:57;;;;;;;0.17;0.17;;;;;;;6.72;77.85;100200.69;5060428;28;20029;-82
2023/11/27 06:05:24;;;;;;;0.20;0.20;;;;;;;6.76;77.33;100194.47;5061412;28;20028;-82
2023/11/27 06:07:50;;;;;;;0.50;0.50;;;;;;;6.70;77.45;100193.72;5062950;28;20080;-82
2023/11/27 06:10:17;;;;;;;0.20;0.20;;;;;;;6.69;77.96;100191.97;5065628;28;20048;-81
2023/11/27 06:12:43;;;;;;;0.20;0.20;;;;;;;6.72;77.81;100181.41;5064866;28;20032;-80
2023/11/27 06:15:14;;;;;;;0.20;0.20;;;;;;;6.73;77.39;100176.13;5064998;28;20032;-81
2023/11/27 06:17:40;;;;;;;0.20;0.20;;;;;;;6.75;77.66;100171.69;5061640;28;20059;-82
2023/11/27 06:20:15;;;;;;;0.30;0.30;;;;;;;6.68;77.91;100159.53;5063354;28;20375;-82
2023/11/27 06:22:41;;;;;;;0.20;0.20;;;;;;;6.67;77.94;100157.78;5060839;28;20059;-82
2023/11/27 06:25:09;;;;;;;0.20;0.20;;;;;;;6.66;77.80;100150.75;5060196;28;20119;-83
2023/11/27 06:27:36;;;;;;;0.20;0.20;;;;;;;6.75;77.95;100150.63;5057642;28;20033;-82
2023/11/27 06:30:02;;;;;;;0.20;0.20;;;;;;;6.76;77.36;100141.81;5060958;28;20025;-81
2023/11/27 06:32:29;;;;;;;0.32;0.32;;;;;;;6.76;77.94;100141.81;5062252;28;20037;-81
2023/11/27 06:34:56;;;;;;;0.15;0.15;;;;;;;6.72;77.90;100134.88;5065686;28;20032;-80
2023/11/27 06:37:22;;;;;;;0.20;0.20;;;;;;;6.72;77.66;100124.34;5069356;28;20052;-80
2023/11/27 06:39:48;;;;;;;0.20;0.20;;;;;;;6.73;77.44;100119.94;5065539;28;20071;-81
2023/11/27 06:42:15;;;;;;;0.20;0.20;;;;;;;6.71;77.63;100101.53;5061887;28;20039;-81
2023/11/27 06:44:41;;;;;;;0.15;0.15;;;;;;;6.74;77.40;100101.50;5061170;28;20040;-82
2023/11/27 06:47:08;;;;;;;0.20;0.20;;;;;;;6.75;77.88;100097.97;5058653;28;20044;-78
2023/11/27 06:49:34;;;;;;;0.40;0.40;;;;;;;6.71;78.15;100100.69;5064349;28;20045;-79
2023/11/27 06:52:01;;;;;;;0.20;0.20;;;;;;;6.74;77.53;100090.97;5064522;28;20090;-81
2023/11/27 06:54:27;;;;;;;0.10;0.10;;;;;;;6.74;77.46;100085.72;5065767;28;20029;-80
2023/11/27 06:56:54;;;;;;;0.22;0.22;;;;;;;6.78;77.58;100090.03;5057072;28;20032;-82
2023/11/27 06:59:20;;;;;;;1.08;0.98;;;;;;;6.76;78.16;100089.16;5062841;28;20041;-83
2023/11/27 07:01:46;;;;;;;0.20;0.20;;;;;;;6.77;77.72;100085.63;5072307;28;20053;-82
2023/11/27 07:04:13;;;;;;;0.20;0.20;;;;;;;6.83;77.41;100086.44;5062937;28;20037;-82
2023/11/27 07:06:39;;;;;;;0.10;0.10;;;;;;;6.80;78.07;100082.97;5061048;28;20032;-84
2023/11/27 07:09:06;;;;;;;1.40;1.40;;;;;;;6.87;77.69;100080.25;5061059;28;20035;-82
2023/11/27 07:11:33;;;;;;;0.38;0.38;;;;;;;6.82;77.74;100076.78;5062304;28;20108;-81
2023/11/27 07:14:00;;;;;;;0.20;0.20;;;;;;;6.80;77.91;100064.53;5063031;28;20029;-84
2023/11/27 07:16:28;;;;;;;0.20;0.20;;;;;;;6.85;77.71;100076.75;5064252;28;20031;-80
2023/11/27 07:18:57;;;;;;;0.20;0.20;;;;;;;6.87;77.68;100067.06;5054950;28;20025;-80
2023/11/27 07:21:25;;;;;;;0.10;0.10;;;;;;;6.86;77.73;100055.66;5058624;28;20112;-81
2023/11/27 07:23:54;;;;;;;0.20;0.20;;;;;;;6.85;77.97;100055.69;5059213;28;20033;-79
2023/11/27 07:26:21;;;;;;;0.20;0.20;;;;;;;6.89;77.66;100057.34;5058319;28;20095;-82
2023/11/27 07:28:47;;;;;;;0.20;0.20;;;;;;;6.85;77.70;100053.06;5055676;28;20103;-82
2023/11/27 07:31:16;;;;;;;0.57;0.57;;;;;;;6.89;77.35;100052.09;5050114;28;20024;-78
2023/11/27 07:33:44;;;;;;;0.20;0.20;;;;;;;6.93;77.31;100045.91;5065196;28;20029;-82
2023/11/27 07:36:11;;;;;;;0.20;0.20;;;;;;;6.95;77.68;100030.91;5064906;28;20043;-81
2023/11/27 07:38:38;;;;;;;0.20;0.20;;;;;;;6.93;77.52;100038.00;5064664;28;20025;-81
2023/11/27 07:41:05;;;;;;;0.20;0.20;;;;;;;6.96;77.89;100035.28;5066827;28;20021;-82
2023/11/27 07:43:33;;;;;;;0.75;0.75;;;;;;;7.01;77.57;100025.53;5063969;28;20028;-80
2023/11/27 07:45:59;;;;;;;0.20;0.20;;;;;;;7.01;77.53;100019.41;5063285;28;20034;-79
2023/11/27 07:48:25;;;;;;;0.35;0.35;;;;;;;6.95;77.87;100025.66;5064003;28;20021;-80
2023/11/27 07:50:51;;;;;;;0.20;0.20;;;;;;;7.05;77.70;100021.97;5062978;28;20039;-78
2023/11/27 07:53:20;;;;;;;0.10;0.10;;;;;;;7.06;77.62;100013.16;5062434;28;20029;-80
2023/11/27 07:55:47;;;;;;;0.20;0.20;;;;;;;7.01;77.78;100007.09;5066566;28;20074;-78
2023/11/27 07:58:14;;;;;;;0.20;0.20;;;;;;;7.03;77.93;100007.94;5065703;28;20055;-78
2023/11/27 08:00:40;;;;;;;0.10;0.10;;;;;;;7.06;77.39;99997.34;5064052;28;20028;-81
2023/11/27 08:03:07;;;;;;;0.20;0.20;;;;;;;7.09;77.93;99989.41;5064115;28;20048;-78
2023/11/27 08:05:35;;;;;;;0.20;0.20;;;;;;;7.13;77.26;99980.53;5063588;28;20045;-79
2023/11/27 08:08:01;;;;;;;0.20;0.20;;;;;;;7.09;77.63;99981.50;5062446;28;20033;-79
2023/11/27 08:10:28;;;;;;;0.30;0.30;;;;;;;7.15;77.92;99974.38;5065261;28;20033;-79
2023/11/27 08:12:54;;;;;;;0.20;0.20;;;;;;;7.15;77.77;99974.38;5068069;28;20017;-81
2023/11/27 08:15:21;;;;;;;0.10;0.10;;;;;;;7.08;77.34;99974.50;5069868;28;20100;-81
2023/11/27 08:17:48;;;;;;;0.43;0.43;;;;;;;7.15;77.92;99966.47;5067709;28;20249;-80
2023/11/27 08:20:15;;;;;;;0.10;0.10;;;;;;;7.18;77.97;99967.28;5068938;28;20032;-81
2023/11/27 08:22:42;;;;;;;0.28;0.28;;;;;;;7.16;77.73;99965.56;5069719;28;20077;-79
2023/11/27 08:25:10;;;;;;;0.22;0.22;;;;;;;7.22;77.60;99966.31;5067421;28;20036;-78
2023/11/27 08:27:38;;;;;;;0.10;0.10;;;;;;;7.26;77.68;99961.84;5059327;28;20147;-80
2023/11/27 08:30:07;;;;;;;0.28;0.28;;;;;;;7.26;77.38;99961.84;5056265;28;20033;-81
2023/11/27 08:32:33;;;;;;;0.20;0.20;;;;;;;7.29;77.43;99951.25;5062260;28;20077;-80
2023/11/27 08:34:59;;;;;;;0.20;0.20;;;;;;;7.26;77.58;99953.94;5063581;28;20477;-80
2023/11/27 08:37:26;;;;;;;0.10;0.10;;;;;;;7.30;77.27;99945.06;5060181;28;20029;-79
2023/11/27 08:39:53;;;;;;;0.10;0.10;;;;;;;7.29;78.01;99938.06;5059242;28;20283;-78
2023/11/27 08:42:19;;;;;;;0.38;0.38;;;;;;;7.34;77.29;99932.69;5059093;28;20456;-78
2023/11/27 08:44:45;;;;;;;0.10;0.10;;;;;;;7.30;77.72;99929.25;5056432;28;20033;-80
2023/11/27 08:47:13;;;;;;;0.20;0.20;;;;;;;7.34;77.83;99923.03;5060429;28;20447;-79
2023/11/27 08:49:39;;;;;;;1.58;1.48;;;;;;;7.29;77.39;99924.91;5057478;28;20033;-80
2023/11/27 08:52:05;;;;;;;0.15;0.15;;;;;;;7.33;78.08;99920.41;5054581;28;20108;-77
2023/11/27 08:54:32;;;;;;;0.10;0.10;;;;;;;7.32;78.00;99913.44;5046044;28;20116;-78
2023/11/27 08:56:59;;;;;;;0.10;0.10;;;;;;;7.39;77.87;99915.00;5069115;28;20031;-77
2023/11/27 08:59:25;;;;;;;0.15;0.15;;;;;;;7.39;77.44;99908.00;5067241;28;20032;-79
2023/11/27 09:01:51;;;;;;;0.20;0.20;;;;;;;7.43;77.89;99904.38;5057454;28;20450;-78
2023/11/27 09:04:18;;;;;;;0.08;0.08;;;;;;;7.40;77.38;99901.81;5056505;28;20029;-79
2023/11/27 09:06:45;;;;;;;0.20;0.20;;;;;;;7.41;77.80;99893.03;5052871;28;20025;-79
2023/11/27 09:09:11;;;;;;;0.10;0.10;;;;;;;7.37;77.56;99890.47;5055678;28;20036;-77
2023/11/27 09:11:37;;;;;;;0.15;0.15;;;;;;;7.41;77.98;99885.13;5058095;28;20035;-77
2023/11/27 09:14:04;;;;;;;0.20;0.20;;;;;;;7.44;77.97;99874.47;5056458;28;20057;-79
2023/11/27 09:16:30;;;;;;;0.20;0.20;;;;;;;7.49;77.37;99873.50;5052944;28;20040;-78
2023/11/27 09:18:56;;;;;;;0.20;0.20;;;;;;;7.52;77.78;99873.44;5043248;28;20063;-79
2023/11/27 09:21:23;;;;;;;0.20;0.20;;;;;;;7.53;77.88;99856.75;5055499;28;20514;-80
2023/11/27 09:23:49;;;;;;;0.15;0.15;;;;;;;7.57;77.41;99855.75;5060520;28;20025;-80
2023/11/27 09:26:16;;;;;;;0.20;0.20;;;;;;;7.54;77.66;99861.09;5061293;28;20400;-80
2023/11/27 09:28:42;;;;;;;0.10;0.10;;;;;;;7.59;77.56;99860.09;5061041;28;20025;-80
2023/11/27 09:31:08;;;;;;;0.25;0.25;;;;;;;7.61;77.73;99853.00;5061263;28;20029;-82
2023/11/27 09:33:35;;;;;;;0.20;0.20;;;;;;;7.62;77.34;99843.31;5061286;28;20033;-85
2023/11/27 09:36:04;;;;;;;1.95;1.85;;;;;;;7.66;78.02;99839.69;5059355;28;20080;-82
2023/11/27 09:38:30;;;;;;;0.10;0.10;;;;;;;7.65;77.44;99842.38;5060421;28;20775;-79
2023/11/27 09:40:56;;;;;;;0.38;0.38;;;;;;;7.65;77.50;99838.00;5062257;28;20029;-82
2023/11/27 09:43:22;;;;;;;0.10;0.10;;;;;;;7.69;77.92;99842.28;5060754;28;20033;-82
2023/11/27 09:45:49;;;;;;;0.10;0.10;;;;;;;7.71;77.49;99837.84;5062603;28;20037;-83
2023/11/27 09:48:18;;;;;;;0.20;0.20;;;;;;;7.70;77.92;99833.47;5072135;28;20074;-83
2023/11/27 09:50:45;;;;;;;0.20;0.20;;;;;;;7.68;77.31;99824.72;5061126;28;20055;-86
2023/11/27 09:53:16;;;;;;;0.20;0.20;;;;;;;7.72;77.65;99818.47;5065745;28;20070;-82
2023/11/27 09:55:47;;;;;;;0.10;0.10;;;;;;;7.72;77.43;99815.81;5059185;28;20094;-82
2023/11/27 09:58:13;;;;;;;0.10;0.10;;;;;;;7.76;77.64;99809.59;5059310;28;20388;-83
2023/11/27 10:00:42;;;;;;;0.65;0.60;;;;;;;7.79;77.30;99808.66;5061679;28;20029;-81
2023/11/27 10:03:08;;;;;;;0.20;0.20;;;;;;;7.83;77.82;99809.44;5061404;28;20362;-81
2023/11/27 10:05:35;;;;;;;0.10;0.10;;;;;;;7.88;77.66;99812.81;5065550;28;20021;-83
2023/11/27 10:08:03;;;;;;;0.10;0.10;;;;;;;7.90;77.83;99806.59;5061199;28;20051;-82
2023/11/27 10:10:29;;;;;;;0.10;0.10;;;;;;;7.93;77.24;99813.56;5059730;28;20032;-81
2023/11/27 10:12:59;;;;;;;0.52;0.52;;;;;;;7.94;77.75;99807.38;5061047;28;20029;-82
2023/11/27 10:15:27;;;;;;;0.10;0.10;;;;;;;7.92;77.63;99798.63;5060663;28;20051;-82
2023/11/27 10:17:55;;;;;;;0.30;0.30;;;;;;;7.95;77.81;99795.94;5056778;28;20048;-81
2023/11/27 10:20:23;;;;;;;0.57;0.57;;;;;;;7.95;77.13;99782.75;5056328;28;20041;-82
2023/11/27 10:22:49;;;;;;;0.90;0.90;;;;;;;7.95;77.33;99788.03;5055646;28;20025;-80
2023/11/27 10:25:16;;;;;;;0.20;0.20;;;;;;;7.96;77.32;99779.19;5056224;28;20033;-80
2023/11/27 10:27:43;;;;;;;0.60;0.60;;;;;;;7.93;77.34;99774.00;5056764;28;20462;-81
2023/11/27 10:30:24;;;;;;;0.20;0.20;;;;;;;8.00;77.94;99767.66;5056876;28;20029;-83
2023/11/27 10:32:52;;;;;;;0.17;0.17;;;;;;;7.93;77.70;99760.81;5057783;28;20040;-84
2023/11/27 10:35:20;;;;;;;0.20;0.20;;;;;;;7.91;77.67;99754.69;5056516;28;20488;-81
2023/11/27 10:37:49;;;;;;;0.10;0.10;;;;;;;7.90;77.81;99755.59;5059458;28;20043;-81
2023/11/27 10:40:16;;;;;;;0.32;0.32;;;;;;;7.89;77.60;99748.63;5057718;28;20132;-82
2023/11/27 10:42:48;;;;;;;0.20;0.20;;;;;;;7.93;77.60;99748.47;5059538;28;20047;-82
2023/11/27 10:45:18;;;;;;;0.20;0.20;;;;;;;8.00;77.14;99748.31;5059310;28;20036;-81
2023/11/27 10:47:48;;;;;;;0.20;0.20;;;;;;;8.02;77.29;99742.09;5060750;28;20029;-79
2023/11/27 10:50:15;;;;;;;0.93;0.52;;;;;;;8.08;77.37;99731.38;5060832;28;20044;-80
2023/11/27 10:52:44;;;;;;;0.63;0.63;;;;;;;8.09;77.43;99726.97;5060122;28;20028;-81
2023/11/27 10:55:16;;;;;;;0.20;0.20;;;;;;;8.16;77.34;99730.28;5056759;28;20052;-82
2023/11/27 10:57:44;;;;;;;;;;;;;;;8.27;77.40;99728.22;5061501;28;20086;-82
2023/11/27 11:00:18;;;;;;;0.20;0.20;;;;;;;8.16;77.26;99725.03;5062371;28;19917;-83
2023/11/27 11:02:49;;;;;;;0.17;0.17;;;;;;;8.18;77.25;99715.28;5050922;28;20048;-85
2023/11/27 11:05:26;;;;;;;0.20;0.20;;;;;;;8.23;77.73;99716.03;5058521;28;20040;-83
2023/11/27 11:07:55;;;;;;;0.20;0.20;;;;;;;8.14;77.65;99703.97;5053347;28;20025;-83
2023/11/27 11:10:26;;;;;;;0.10;0.10;;;;;;;8.17;77.02;99708.28;5055953;28;20496;-82
2023/11/27 11:12:55;;;;;;;0.20;0.20;;;;;;;8.18;77.38;99704.75;5052245;28;20545;-81
2023/11/27 11:15:34;;;;;;;0.08;0.08;;;;;;;8.20;77.60;99698.50;5058407;28;20036;-79
2023/11/27 11:18:31;;;;;;;0.10;0.10;;;;;;;8.28;77.64;99687.72;5055861;28;20034;-79
2023/11/27 11:29:36;;;;;;;0.10;0.10;;;;;;;8.25;77.72;99664.09;5103910;27;1200557;-78
2023/11/27 11:32:04;;;;;;;0.17;0.17;;;;;;;8.27;77.18;99656.97;5117912;28;20028;-78
2023/11/27 11:34:49;;;;;;;0.10;0.10;;;;;;;8.28;77.38;99653.41;5118517;28;20023;-78
2023/11/27 11:37:17;;;;;;;0.10;0.10;;;;;;;8.31;77.47;99642.78;5115899;28;20055;-79
2023/11/27 11:39:46;;;;;;;0.20;0.20;;;;;;;8.32;77.33;99644.50;5117288;28;20023;-80
2023/11/27 11:42:17;;;;;;;0.20;0.20;;;;;;;8.36;77.39;99637.34;5115637;28;20403;-77
2023/11/27 11:45:06;;;;;;;0.20;0.20;;;;;;;8.46;77.29;99625.66;5118089;28;20019;-79